Time;durP1;ratioP1;P1;durP2;ratioP2;P2;SDS_P1;SDS_P2;PMS_P1;PMS_P2;Temp;Humidity;BMP_temperature;BMP_pressure;BME280_temperature;BME280_humidity;BME280_pressure;Samples;Min_cycle;Max_cycle;Signal;HPM_P1;HPM_P2
2023/06/25 00:00:22;;;;;;;11.88;8.25;;;;;;;19.76;75.64;101911.88;5048152;28;20115;-81
2023/06/25 00:02:47;;;;;;;12.57;8.73;;;;;;;19.72;76.41;101908.53;5049525;28;20052;-82
2023/06/25 00:05:13;;;;;;;13.82;8.75;;;;;;;19.64;76.98;101898.34;5048326;28;20029;-82
2023/06/25 00:07:40;;;;;;;11.60;8.32;;;;;;;19.60;76.82;101901.22;5049402;28;20595;-82
2023/06/25 00:10:05;;;;;;;11.07;8.15;;;;;;;19.56;77.24;101897.84;5048278;28;20377;-81
2023/06/25 00:12:31;;;;;;;13.10;8.93;;;;;;;19.52;77.92;101897.13;5046978;28;20032;-82
2023/06/25 00:14:57;;;;;;;12.07;8.70;;;;;;;19.51;77.33;101895.41;5050371;28;20569;-82
2023/06/25 00:17:27;;;;;;;12.55;9.02;;;;;;;19.47;77.23;101891.19;5049088;28;20122;-81
2023/06/25 00:19:53;;;;;;;11.63;8.88;;;;;;;19.42;77.80;101895.84;5050476;28;20025;-82
2023/06/25 00:22:18;;;;;;;13.75;9.30;;;;;;;19.36;78.13;101897.00;5048757;28;20021;-82
2023/06/25 00:24:43;;;;;;;11.50;8.98;;;;;;;19.32;78.09;101894.56;5068524;28;20039;-82
2023/06/25 00:27:09;;;;;;;12.90;8.50;;;;;;;19.29;78.32;101887.66;5050583;28;20395;-82
2023/06/25 00:29:34;;;;;;;11.50;8.38;;;;;;;19.29;78.15;101886.81;5051477;28;20036;-82
2023/06/25 00:31:59;;;;;;;11.65;8.95;;;;;;;19.25;78.10;101894.84;5051694;28;20082;-82
2023/06/25 00:34:24;;;;;;;12.95;8.80;;;;;;;19.22;78.54;101887.06;5053335;28;20029;-82
2023/06/25 00:36:51;;;;;;;11.38;8.85;;;;;;;19.21;78.61;101889.78;5053349;28;20032;-82
2023/06/25 00:39:17;;;;;;;11.60;8.70;;;;;;;19.16;79.45;101884.69;5036048;28;20028;-82
2023/06/25 00:41:43;;;;;;;11.60;8.73;;;;;;;19.13;78.71;101890.09;5034339;28;20025;-82
2023/06/25 00:44:08;;;;;;;13.05;9.40;;;;;;;19.10;79.28;101879.72;5054970;28;20104;-82
2023/06/25 00:46:34;;;;;;;11.70;8.63;;;;;;;19.06;79.16;101880.78;5049805;28;20036;-82
2023/06/25 00:49:05;;;;;;;11.30;8.55;;;;;;;19.04;79.78;101877.34;5054072;28;20024;-82
2023/06/25 00:51:35;;;;;;;13.95;9.25;;;;;;;19.02;79.11;101882.72;5030639;28;20070;-82
2023/06/25 00:54:04;;;;;;;13.10;9.00;;;;;;;18.98;79.68;101872.34;5034875;28;20464;-82
2023/06/25 00:56:30;;;;;;;12.02;9.38;;;;;;;18.95;79.80;101868.94;5033600;28;20387;-82
2023/06/25 00:59:00;;;;;;;15.30;9.15;;;;;;;18.94;79.52;101872.50;5052709;28;20021;-82
2023/06/25 01:01:33;;;;;;;15.45;9.43;;;;;;;18.92;79.35;101873.44;5054569;28;20036;-82
2023/06/25 01:04:06;;;;;;;12.98;9.63;;;;;;;18.86;79.64;101866.66;5051972;28;20045;-82
2023/06/25 01:06:40;;;;;;;14.45;9.32;;;;;;;18.80;79.51;101864.28;5053456;28;20032;-82
2023/06/25 01:09:10;;;;;;;12.27;8.85;;;;;;;18.72;79.64;101861.16;5051101;28;20404;-82
2023/06/25 01:11:38;;;;;;;11.27;8.05;;;;;;;18.69;80.38;101856.00;5053748;28;20024;-82
2023/06/25 01:14:03;;;;;;;10.25;8.20;;;;;;;18.67;80.87;101858.72;5051046;28;20021;-82
2023/06/25 01:16:29;;;;;;;10.98;8.70;;;;;;;18.64;80.93;101857.06;5051258;28;20106;-82
2023/06/25 01:18:58;;;;;;;11.90;8.05;;;;;;;18.63;81.26;101854.50;5049368;28;20534;-82
2023/06/25 01:21:26;;;;;;;11.93;9.00;;;;;;;18.60;81.72;101852.88;5053984;28;20035;-82
2023/06/25 01:23:52;;;;;;;11.98;8.40;;;;;;;18.59;81.09;101855.56;5050827;28;20353;-82
2023/06/25 01:26:18;;;;;;;10.30;7.90;;;;;;;18.54;81.00;101855.75;5053382;28;20468;-82
2023/06/25 01:28:43;;;;;;;12.38;8.52;;;;;;;18.49;81.08;101850.69;5048919;28;20037;-82
2023/06/25 01:31:08;;;;;;;10.30;8.40;;;;;;;18.47;81.40;101846.41;5052306;28;20017;-82
2023/06/25 01:33:34;;;;;;;10.85;8.65;;;;;;;18.47;81.24;101841.13;5051828;28;20025;-82
2023/06/25 01:35:59;;;;;;;11.13;7.93;;;;;;;18.44;81.35;101847.41;5052420;28;20021;-82
2023/06/25 01:38:24;;;;;;;11.80;8.27;;;;;;;18.42;81.50;101837.84;5051733;28;20021;-82
2023/06/25 01:40:49;;;;;;;10.40;8.07;;;;;;;18.41;82.03;101831.72;5053373;28;20476;-82
2023/06/25 01:43:15;;;;;;;11.07;8.95;;;;;;;18.37;81.92;101824.84;5050223;28;20067;-82
2023/06/25 01:45:40;;;;;;;12.18;8.70;;;;;;;18.37;82.17;101824.84;5052769;28;20061;-82
2023/06/25 01:48:06;;;;;;;11.25;8.82;;;;;;;18.36;82.58;101823.13;5052446;28;20472;-82
2023/06/25 01:50:31;;;;;;;12.25;8.57;;;;;;;18.37;82.53;101826.66;5047777;28;20043;-82
2023/06/25 01:52:57;;;;;;;12.05;9.02;;;;;;;18.35;81.81;101819.66;5029908;28;20025;-82
2023/06/25 01:55:22;;;;;;;15.68;9.85;;;;;;;18.32;81.79;101821.59;5051281;28;21528;-82
2023/06/25 01:57:47;;;;;;;11.82;9.82;;;;;;;18.27;82.83;101816.53;5050825;28;20460;-82
2023/06/25 02:00:13;;;;;;;12.95;9.57;;;;;;;18.26;83.36;101817.44;5051631;28;20499;-82
2023/06/25 02:02:38;;;;;;;11.50;8.95;;;;;;;18.24;83.04;101814.00;5049952;28;20057;-82
2023/06/25 02:05:04;;;;;;;12.18;9.18;;;;;;;18.23;83.06;101812.28;5052007;28;20063;-82
2023/06/25 02:07:29;;;;;;;11.70;9.02;;;;;;;18.24;82.73;101814.00;5032910;28;20029;-82
2023/06/25 02:09:55;;;;;;;13.40;9.45;;;;;;;18.21;82.46;101798.34;5033921;28;20100;-82
2023/06/25 02:12:20;;;;;;;11.38;9.13;;;;;;;18.19;82.37;101802.81;5034426;28;20021;-82
2023/06/25 02:14:45;;;;;;;11.75;9.13;;;;;;;18.17;82.71;101802.00;5032513;28;20033;-82
2023/06/25 02:17:11;;;;;;;13.77;9.55;;;;;;;18.11;82.45;101797.00;5051511;28;20436;-82
2023/06/25 02:19:36;;;;;;;11.63;8.93;;;;;;;18.09;82.83;101801.50;5051476;28;20033;-82
2023/06/25 02:22:01;;;;;;;10.93;8.73;;;;;;;18.02;84.01;101793.84;5051056;28;20009;-82
2023/06/25 02:24:26;;;;;;;10.13;8.32;;;;;;;18.01;82.98;101792.13;5048529;28;20672;-82
2023/06/25 02:26:52;;;;;;;10.77;8.45;;;;;;;17.99;83.32;101785.22;5050776;28;20096;-82
2023/06/25 02:29:17;;;;;;;14.23;9.13;;;;;;;17.94;83.97;101788.00;5032175;28;20040;-82
2023/06/25 02:31:42;;;;;;;8.68;6.47;;;;;;;17.89;83.34;101784.72;5051737;28;20047;-82
2023/06/25 02:34:07;;;;;;;8.38;6.30;;;;;;;17.87;83.05;101783.91;5055716;28;20028;-82
2023/06/25 02:36:33;;;;;;;8.23;5.90;;;;;;;17.82;82.81;101778.84;5051399;28;20100;-82
2023/06/25 02:38:58;;;;;;;7.63;6.00;;;;;;;17.80;83.12;101774.56;5051843;28;20017;-82
2023/06/25 02:41:23;;;;;;;7.57;5.95;;;;;;;17.78;83.02;101773.75;5051549;28;20028;-82
2023/06/25 02:43:49;;;;;;;7.43;5.82;;;;;;;17.75;83.58;101769.50;5051084;28;20025;-82
2023/06/25 02:46:14;;;;;;;9.25;6.60;;;;;;;17.73;83.95;101771.31;5049982;28;20021;-82
2023/06/25 02:48:42;;;;;;;9.27;7.18;;;;;;;17.71;83.43;101778.41;5049985;28;20025;-82
2023/06/25 02:51:08;;;;;;;10.80;7.90;;;;;;;17.68;83.47;101776.78;5050073;28;20057;-82
2023/06/25 02:53:33;;;;;;;9.07;7.50;;;;;;;17.63;84.89;101770.84;5049953;28;20116;-82
2023/06/25 02:55:58;;;;;;;9.65;7.60;;;;;;;17.61;84.82;101777.94;5031306;28;20075;-82
2023/06/25 02:58:23;;;;;;;10.02;7.07;;;;;;;17.59;84.82;101778.00;5049328;28;20355;-82
2023/06/25 03:00:49;;;;;;;9.02;6.95;;;;;;;17.60;84.92;101778.84;5050485;28;20033;-82
2023/06/25 03:03:14;;;;;;;7.32;5.72;;;;;;;17.56;83.54;101777.28;5049626;28;20033;-82
2023/06/25 03:05:39;;;;;;;7.45;5.75;;;;;;;17.54;83.60;101771.22;5051108;28;20052;-82
2023/06/25 03:08:05;;;;;;;6.90;5.68;;;;;;;17.53;83.97;101766.88;5051176;28;20025;-82
2023/06/25 03:10:31;;;;;;;7.80;6.25;;;;;;;17.49;85.07;101767.91;5047330;28;20029;-82
2023/06/25 03:12:57;;;;;;;9.50;7.13;;;;;;;17.47;85.38;101764.47;5051881;28;20075;-82
2023/06/25 03:15:22;;;;;;;11.35;7.47;;;;;;;17.45;85.44;101768.03;5049005;28;20029;-82
2023/06/25 03:17:47;;;;;;;11.52;8.70;;;;;;;17.47;85.00;101768.00;5048814;28;20048;-81
2023/06/25 03:20:13;;;;;;;12.20;8.85;;;;;;;17.43;85.87;101767.22;5049075;28;20052;-82
2023/06/25 03:22:39;;;;;;;9.18;6.85;;;;;;;17.41;85.58;101771.72;5051515;28;20125;-82
2023/06/25 03:25:04;;;;;;;11.85;7.95;;;;;;;17.39;85.90;101773.56;5050118;28;20155;-82
2023/06/25 03:27:31;;;;;;;7.30;6.15;;;;;;;17.37;85.44;101764.88;5047994;28;20442;-82
2023/06/25 03:29:56;;;;;;;6.55;5.15;;;;;;;17.36;84.29;101763.16;5051767;28;20021;-82
2023/06/25 03:32:22;;;;;;;5.75;4.35;;;;;;;17.35;83.71;101768.44;5032798;28;20025;-82
2023/06/25 03:34:47;;;;;;;4.97;4.35;;;;;;;17.33;84.40;101763.25;5051713;28;20021;-82
2023/06/25 03:37:12;;;;;;;7.88;5.72;;;;;;;17.31;84.35;101757.22;5046948;28;20017;-82
2023/06/25 03:39:37;;;;;;;7.80;5.97;;;;;;;17.29;84.75;101761.66;5051633;28;20025;-82
2023/06/25 03:42:03;;;;;;;7.97;6.55;;;;;;;17.29;85.27;101754.66;5048972;28;20021;-82
2023/06/25 03:44:28;;;;;;;11.15;6.82;;;;;;;17.29;85.18;101751.16;5047824;28;20060;-82
2023/06/25 03:46:54;;;;;;;9.52;7.65;;;;;;;17.31;85.40;101748.47;5049708;28;20055;-82
2023/06/25 03:49:19;;;;;;;13.10;8.73;;;;;;;17.31;85.34;101754.56;5050185;28;20093;-82
2023/06/25 03:51:44;;;;;;;10.98;7.72;;;;;;;17.27;84.88;101753.84;5046866;28;20036;-82
2023/06/25 03:54:09;;;;;;;9.68;7.93;;;;;;;17.26;86.22;101746.00;5051399;28;20025;-82
2023/06/25 03:56:36;;;;;;;11.30;8.00;;;;;;;17.24;85.74;101750.50;5049260;28;20032;-82
2023/06/25 03:59:01;;;;;;;9.13;7.57;;;;;;;17.23;85.44;101743.53;5048269;28;20029;-81
2023/06/25 04:01:26;;;;;;;10.20;7.10;;;;;;;17.25;85.42;101749.59;5052985;28;20028;-82
2023/06/25 04:03:52;;;;;;;8.90;6.97;;;;;;;17.24;85.30;101745.22;5052861;28;20124;-82
2023/06/25 04:06:17;;;;;;;9.98;7.32;;;;;;;17.23;85.96;101754.03;5052866;28;20025;-82
2023/06/25 04:08:42;;;;;;;9.63;7.53;;;;;;;17.23;85.98;101751.41;5053233;28;20111;-82
2023/06/25 04:11:07;;;;;;;10.40;7.53;;;;;;;17.24;85.91;101758.38;5047135;28;20033;-82
2023/06/25 04:13:33;;;;;;;9.13;7.50;;;;;;;17.25;85.75;101755.69;5035755;28;20021;-82
2023/06/25 04:15:58;;;;;;;9.75;7.47;;;;;;;17.26;86.30;101753.88;5054520;28;20048;-82
2023/06/25 04:18:23;;;;;;;11.48;7.50;;;;;;;17.27;86.94;101752.97;5034028;28;20025;-82
2023/06/25 04:20:49;;;;;;;10.43;7.35;;;;;;;17.29;86.61;101751.16;5053980;28;20025;-82
2023/06/25 04:23:14;;;;;;;8.95;7.63;;;;;;;17.31;86.48;101759.84;5052046;28;20024;-82
2023/06/25 04:25:41;;;;;;;8.82;7.57;;;;;;;17.33;86.82;101746.66;5053816;28;20488;-82
2023/06/25 04:28:12;;;;;;;10.38;7.43;;;;;;;17.34;86.94;101751.84;5051916;28;20353;-82
2023/06/25 04:30:38;;;;;;;10.90;7.13;;;;;;;17.37;87.37;101753.47;5050041;28;20028;-82
2023/06/25 04:33:04;;;;;;;10.15;8.00;;;;;;;17.40;86.97;101754.22;5053269;28;20502;-82
2023/06/25 04:35:30;;;;;;;10.15;8.35;;;;;;;17.44;87.53;101750.53;5050894;28;20033;-82
2023/06/25 04:37:55;;;;;;;11.00;8.88;;;;;;;17.50;87.08;101748.59;5053724;28;20032;-82
2023/06/25 04:40:20;;;;;;;11.90;8.68;;;;;;;17.51;87.98;101740.63;5054654;28;20506;-82
2023/06/25 04:42:45;;;;;;;10.77;8.90;;;;;;;17.55;87.80;101736.09;5052339;28;20028;-82
2023/06/25 04:45:11;;;;;;;11.60;9.50;;;;;;;17.61;87.55;101738.47;5052844;28;20422;-82
2023/06/25 04:47:36;;;;;;;11.52;9.40;;;;;;;17.67;87.80;101743.50;5050244;28;20101;-82
2023/06/25 04:50:02;;;;;;;12.95;9.32;;;;;;;17.70;88.46;101743.38;5050128;28;20533;-81
2023/06/25 04:52:27;;;;;;;11.18;9.25;;;;;;;17.78;88.60;101742.19;5051282;28;20033;-82
2023/06/25 04:54:52;;;;;;;10.48;9.13;;;;;;;17.82;88.34;101742.00;5053803;28;20037;-82
2023/06/25 04:57:17;;;;;;;14.07;9.93;;;;;;;17.86;87.88;101745.34;5051458;28;20020;-82
2023/06/25 04:59:43;;;;;;;13.25;10.05;;;;;;;17.90;88.23;101741.69;5053915;28;20447;-82
2023/06/25 05:02:08;;;;;;;14.18;10.00;;;;;;;17.95;87.90;101746.75;5051009;28;20021;-82
2023/06/25 05:04:33;;;;;;;12.27;10.20;;;;;;;17.99;87.92;101743.94;5049323;28;20139;-82
2023/06/25 05:06:58;;;;;;;12.45;10.77;;;;;;;18.04;88.39;101743.72;5052860;28;20021;-82
2023/06/25 05:09:24;;;;;;;14.55;10.82;;;;;;;18.09;88.59;101751.47;5048369;28;20025;-82
2023/06/25 05:11:49;;;;;;;12.35;10.75;;;;;;;18.13;87.75;101747.75;5053022;28;20056;-82
2023/06/25 05:14:14;;;;;;;13.65;10.90;;;;;;;18.17;86.87;101744.06;5049218;28;20033;-81
2023/06/25 05:16:39;;;;;;;13.10;10.52;;;;;;;18.20;86.96;101738.69;5051190;28;20074;-82
2023/06/25 05:19:05;;;;;;;13.48;10.95;;;;;;;18.26;85.57;101743.69;5050919;28;20048;-82
2023/06/25 05:21:30;;;;;;;15.25;10.85;;;;;;;18.33;85.97;101742.47;5034954;28;20060;-82
2023/06/25 05:24:00;;;;;;;13.75;10.93;;;;;;;18.36;85.77;101744.09;5050126;28;20415;-81
2023/06/25 05:26:26;;;;;;;15.43;11.27;;;;;;;18.42;85.10;101741.22;5049045;28;20037;-82
2023/06/25 05:28:51;;;;;;;14.98;10.90;;;;;;;18.48;85.78;101740.06;5057391;28;20028;-82
2023/06/25 05:31:17;;;;;;;13.27;10.63;;;;;;;18.53;84.33;101740.72;5053320;28;20102;-82
2023/06/25 05:33:42;;;;;;;16.38;11.27;;;;;;;18.59;84.00;101740.47;5051097;28;20426;-82
2023/06/25 05:36:07;;;;;;;13.88;10.75;;;;;;;18.64;84.00;101743.72;5049127;28;20025;-82
2023/06/25 05:38:32;;;;;;;13.50;10.80;;;;;;;18.70;83.43;101741.75;5053801;28;20021;-82
2023/06/25 05:40:58;;;;;;;13.05;10.23;;;;;;;18.77;83.71;101744.03;5052644;28;20036;-82
2023/06/25 05:43:23;;;;;;;13.27;9.95;;;;;;;18.83;82.43;101734.97;5050868;28;20021;-82
2023/06/25 05:45:48;;;;;;;14.45;10.27;;;;;;;18.90;81.52;101738.19;5050456;28;20036;-82
2023/06/25 05:48:14;;;;;;;14.85;11.15;;;;;;;18.98;81.77;101740.50;5051733;28;20070;-82
2023/06/25 05:50:39;;;;;;;13.93;10.82;;;;;;;19.02;82.79;101736.78;5046702;28;20079;-82
2023/06/25 05:53:05;;;;;;;14.68;10.73;;;;;;;19.07;82.40;101740.06;5050995;28;20017;-82
2023/06/25 05:55:30;;;;;;;13.95;10.38;;;;;;;19.13;81.79;101739.75;5049662;28;20102;-82
2023/06/25 05:57:55;;;;;;;13.23;10.18;;;;;;;19.20;80.69;101730.63;5050251;28;20054;-82
2023/06/25 06:00:21;;;;;;;13.50;10.45;;;;;;;19.26;81.63;101729.50;5051129;28;20028;-82
2023/06/25 06:02:46;;;;;;;12.63;9.68;;;;;;;19.31;81.57;101737.16;5050031;28;20439;-82
2023/06/25 06:05:12;;;;;;;13.30;10.18;;;;;;;19.34;80.14;101731.75;5047405;28;20035;-82
2023/06/25 06:07:37;;;;;;;16.58;10.20;;;;;;;19.40;80.13;101728.81;5050159;28;20055;-82
2023/06/25 06:10:04;;;;;;;13.60;10.02;;;;;;;19.46;81.72;101725.91;5052103;28;20051;-82
2023/06/25 06:12:29;;;;;;;12.82;9.98;;;;;;;19.53;79.64;101718.53;5050248;28;20020;-82
2023/06/25 06:14:55;;;;;;;14.55;10.50;;;;;;;19.63;79.71;101726.84;5047929;28;20049;-82
2023/06/25 06:17:20;;;;;;;13.38;10.13;;;;;;;19.67;78.81;101718.69;5049745;28;20039;-82
2023/06/25 06:19:46;;;;;;;14.73;10.10;;;;;;;19.76;79.03;101727.94;5050037;28;20033;-82
2023/06/25 06:22:12;;;;;;;12.32;9.70;;;;;;;19.84;78.18;101723.09;5050157;28;20366;-82
2023/06/25 06:24:38;;;;;;;12.57;9.48;;;;;;;19.92;77.07;101724.53;5018372;28;20018;-82
2023/06/25 06:27:04;;;;;;;13.43;10.10;;;;;;;19.99;78.55;101724.13;5049134;28;20032;-82
2023/06/25 06:29:29;;;;;;;13.27;10.00;;;;;;;20.05;77.54;101727.41;5051663;28;20475;-82
2023/06/25 06:31:54;;;;;;;14.63;9.82;;;;;;;20.10;76.36;101730.66;5050089;28;20021;-82
2023/06/25 06:34:19;;;;;;;13.57;9.65;;;;;;;20.17;76.25;101726.75;5051889;28;20029;-82
2023/06/25 06:36:45;;;;;;;12.82;10.10;;;;;;;20.26;77.34;101722.78;5047024;28;20025;-82
2023/06/25 06:39:10;;;;;;;14.52;10.23;;;;;;;20.32;75.96;101725.13;5050053;28;20392;-82
2023/06/25 06:41:35;;;;;;;15.02;10.13;;;;;;;20.40;76.71;101717.63;5047759;28;20098;-82
2023/06/25 06:44:14;;;;;;;12.70;9.55;;;;;;;20.46;75.30;101725.22;5047109;28;20025;-82
2023/06/25 06:46:40;;;;;;;12.55;9.23;;;;;;;20.54;73.92;101729.22;5050230;28;20115;-82
2023/06/25 06:49:05;;;;;;;13.48;10.13;;;;;;;20.61;74.80;101720.03;5050923;28;20068;-82
2023/06/25 06:51:31;;;;;;;13.35;10.40;;;;;;;20.66;74.79;101712.72;5050922;28;20086;-82
2023/06/25 06:53:56;;;;;;;12.68;10.32;;;;;;;20.68;72.77;101710.81;5050889;28;20040;-82
2023/06/25 06:56:21;;;;;;;16.58;11.75;;;;;;;20.72;73.25;101717.66;5049744;28;20021;-82
2023/06/25 06:58:47;;;;;;;14.02;10.63;;;;;;;20.79;73.90;101722.66;5050287;28;20486;-82
2023/06/25 07:01:13;;;;;;;14.43;10.77;;;;;;;20.85;73.13;101722.28;5050834;28;20041;-82
2023/06/25 07:03:38;;;;;;;12.68;9.80;;;;;;;20.92;73.14;101718.38;5049150;28;20032;-82
2023/06/25 07:06:04;;;;;;;14.60;10.60;;;;;;;21.00;71.53;101720.59;5051611;28;20044;-82
2023/06/25 07:08:29;;;;;;;14.02;9.30;;;;;;;21.07;71.48;101717.53;5048064;28;20472;-82
2023/06/25 07:10:54;;;;;;;11.50;9.45;;;;;;;21.13;68.79;101711.03;5050284;28;20053;-82
2023/06/25 07:13:19;;;;;;;12.70;8.80;;;;;;;21.21;69.58;101723.81;5049978;28;20041;-82
2023/06/25 07:15:45;;;;;;;13.38;9.40;;;;;;;21.25;66.55;101717.41;5051400;28;20478;-82
2023/06/25 07:18:10;;;;;;;12.05;8.43;;;;;;;21.29;65.30;101726.91;5048385;28;20112;-82
2023/06/25 07:20:35;;;;;;;10.55;8.13;;;;;;;21.33;64.58;101722.28;5051166;28;20494;-82
2023/06/25 07:23:00;;;;;;;11.93;8.75;;;;;;;21.38;63.68;101721.06;5048125;28;20079;-82
2023/06/25 07:25:26;;;;;;;12.25;8.75;;;;;;;21.46;64.57;101722.44;5049250;28;20052;-82
2023/06/25 07:27:51;;;;;;;11.02;8.25;;;;;;;21.51;62.63;101723.84;5050765;28;20029;-83
2023/06/25 07:30:16;;;;;;;12.30;7.97;;;;;;;21.56;62.72;101718.28;5050549;28;20107;-82
2023/06/25 07:32:42;;;;;;;13.77;8.25;;;;;;;21.61;61.45;101718.91;5027926;28;20388;-83
2023/06/25 07:35:07;;;;;;;10.57;7.45;;;;;;;21.65;61.50;101715.16;5049361;28;20700;-85
2023/06/25 07:37:33;;;;;;;10.73;7.75;;;;;;;21.70;61.62;101709.56;5050121;28;20083;-84
2023/06/25 07:39:58;;;;;;;13.98;7.90;;;;;;;21.75;61.04;101712.81;5050550;28;20383;-84
2023/06/25 07:42:23;;;;;;;10.85;7.75;;;;;;;21.82;62.24;101710.66;5044164;28;20029;-84
2023/06/25 07:44:48;;;;;;;9.93;7.18;;;;;;;21.89;63.26;101704.00;5041493;28;20033;-83
2023/06/25 07:47:14;;;;;;;10.98;7.80;;;;;;;21.95;62.54;101708.97;5046900;28;20495;-84
2023/06/25 07:49:39;;;;;;;10.63;7.28;;;;;;;22.02;63.53;101700.66;5046409;28;20029;-82
2023/06/25 07:52:04;;;;;;;12.38;7.43;;;;;;;22.10;61.72;101703.66;5040827;28;20037;-82
2023/06/25 07:54:30;;;;;;;11.57;7.22;;;;;;;22.16;61.46;101705.09;5040656;28;20476;-83
2023/06/25 07:56:55;;;;;;;9.90;6.97;;;;;;;22.22;62.38;101708.22;5046261;28;20017;-83
2023/06/25 07:59:20;;;;;;;9.73;6.85;;;;;;;22.27;61.21;101697.34;5045344;28;20404;-84
2023/06/25 08:01:46;;;;;;;8.80;6.45;;;;;;;22.33;62.22;101701.41;5047694;28;20035;-84
2023/06/25 08:04:11;;;;;;;7.45;5.78;;;;;;;22.40;61.44;101697.41;5048520;28;20045;-83
2023/06/25 08:06:36;;;;;;;8.35;5.60;;;;;;;22.45;58.94;101695.38;5046289;28;20075;-83
2023/06/25 08:09:03;;;;;;;8.45;5.60;;;;;;;22.52;59.58;101696.69;5041833;28;20033;-84
2023/06/25 08:11:28;;;;;;;7.25;5.25;;;;;;;22.59;58.76;101691.84;5046592;28;20027;-84
2023/06/25 08:13:53;;;;;;;7.60;5.35;;;;;;;22.63;59.17;101687.19;5038668;28;20468;-84
2023/06/25 08:16:19;;;;;;;6.93;5.00;;;;;;;22.69;58.62;101692.13;5044558;28;20081;-83
2023/06/25 08:18:44;;;;;;;7.72;4.75;;;;;;;22.73;56.27;101694.47;5048171;28;20047;-84
2023/06/25 08:21:09;;;;;;;9.68;5.25;;;;;;;22.80;56.81;101692.28;5049766;28;20030;-84
2023/06/25 08:23:35;;;;;;;7.85;4.85;;;;;;;22.85;56.79;101689.31;5044784;28;20059;-84
2023/06/25 08:26:00;;;;;;;7.65;5.35;;;;;;;22.91;57.58;101690.72;5050369;28;20025;-83
2023/06/25 08:28:25;;;;;;;8.18;4.68;;;;;;;22.96;58.67;101684.19;5044082;28;20087;-84
2023/06/25 08:30:51;;;;;;;8.02;5.10;;;;;;;23.04;59.21;101683.69;5051057;28;20048;-82
2023/06/25 08:33:16;;;;;;;6.82;4.90;;;;;;;23.11;59.25;101686.78;5044881;28;20112;-84
2023/06/25 08:35:41;;;;;;;8.95;5.35;;;;;;;23.14;56.94;101682.13;5031592;28;20060;-84
2023/06/25 08:38:08;;;;;;;6.18;4.90;;;;;;;23.17;56.32;101687.22;5046180;28;20024;-84
2023/06/25 08:40:35;;;;;;;9.52;5.55;;;;;;;23.23;59.12;101680.69;5042204;28;20464;-85
2023/06/25 08:43:00;;;;;;;7.80;5.32;;;;;;;23.30;58.26;101681.13;5044219;28;20033;-85
2023/06/25 08:45:25;;;;;;;7.35;5.45;;;;;;;23.37;57.05;101677.13;5042424;28;20037;-85
2023/06/25 08:47:55;;;;;;;6.47;4.93;;;;;;;23.42;58.43;101676.81;5048700;28;20338;-84
2023/06/25 08:50:21;;;;;;;7.75;5.45;;;;;;;23.47;56.42;101666.75;5048414;28;20033;-84
2023/06/25 08:52:47;;;;;;;6.53;4.88;;;;;;;23.53;57.97;101671.63;5046564;28;20115;-82
2023/06/25 08:55:13;;;;;;;8.15;5.40;;;;;;;23.58;56.67;101665.97;5049128;28;20032;-84
2023/06/25 08:57:39;;;;;;;7.25;4.80;;;;;;;23.62;56.48;101670.13;5046499;28;20044;-82
2023/06/25 09:00:07;;;;;;;6.32;4.40;;;;;;;23.68;57.52;101668.88;5045830;28;20040;-81
2023/06/25 09:02:35;;;;;;;7.28;4.60;;;;;;;23.72;57.02;101663.25;5044172;28;20609;-83
2023/06/25 09:05:10;;;;;;;6.72;4.82;;;;;;;23.79;56.35;101672.50;5031428;28;20025;-84
2023/06/25 09:07:43;;;;;;;7.72;4.95;;;;;;;23.86;58.07;101653.47;5031980;28;20021;-84
2023/06/25 09:10:08;;;;;;;6.07;4.60;;;;;;;23.92;55.20;101663.66;5048333;28;20024;-84
2023/06/25 09:12:34;;;;;;;6.38;4.47;;;;;;;23.98;55.46;101665.09;5046562;28;20036;-84
2023/06/25 09:14:59;;;;;;;6.57;4.70;;;;;;;24.01;55.52;101665.72;5047012;28;20040;-84
2023/06/25 09:17:24;;;;;;;6.90;4.57;;;;;;;24.07;57.20;101660.00;5046743;28;20142;-84
2023/06/25 09:19:51;;;;;;;5.68;4.40;;;;;;;24.14;56.11;101662.19;5046537;28;20040;-84
2023/06/25 09:22:16;;;;;;;5.97;4.40;;;;;;;24.21;55.14;101661.66;5027117;28;20034;-84
2023/06/25 09:24:43;;;;;;;7.40;4.43;;;;;;;24.28;55.75;101656.75;5046448;28;20029;-84
2023/06/25 09:27:10;;;;;;;4.75;3.83;;;;;;;24.36;52.16;101659.72;5045198;28;20059;-82
2023/06/25 09:29:36;;;;;;;5.60;3.90;;;;;;;24.40;53.44;101655.88;5045187;28;20451;-84
2023/06/25 09:32:09;;;;;;;5.85;3.85;;;;;;;24.43;53.85;101649.50;5045844;28;20036;-83
2023/06/25 09:34:35;;;;;;;5.88;4.30;;;;;;;24.51;54.40;101649.78;5048548;28;20079;-82
2023/06/25 09:37:03;;;;;;;5.10;4.00;;;;;;;24.56;54.21;101644.13;5048521;28;20025;-82
2023/06/25 09:39:30;;;;;;;5.55;3.65;;;;;;;24.59;53.53;101649.25;5045201;28;20047;-82
2023/06/25 09:41:56;;;;;;;6.65;3.85;;;;;;;24.64;52.99;101647.06;5045044;28;20036;-83
2023/06/25 09:44:22;;;;;;;4.95;3.65;;;;;;;24.75;54.75;101642.84;5046034;28;20419;-83
2023/06/25 09:46:52;;;;;;;4.93;3.80;;;;;;;24.80;52.82;101643.31;5044145;28;20063;-83
2023/06/25 09:49:19;;;;;;;5.40;3.80;;;;;;;24.83;52.49;101635.13;5029765;28;20025;-84
2023/06/25 09:52:14;;;;;;;5.07;4.00;;;;;;;24.92;54.46;101633.59;5046131;28;20033;-83
2023/06/25 09:54:41;;;;;;;5.38;3.95;;;;;;;25.03;51.47;101635.44;5031165;28;20033;-84
2023/06/25 09:57:09;;;;;;;5.95;4.00;;;;;;;25.08;51.05;101630.63;5045379;28;20086;-84
2023/06/25 09:59:35;;;;;;;5.15;3.72;;;;;;;25.08;49.54;101623.47;5046013;28;20479;-84
2023/06/25 10:02:02;;;;;;;4.47;3.50;;;;;;;25.14;52.48;101617.69;5045895;28;20041;-83
2023/06/25 10:04:30;;;;;;;4.70;3.65;;;;;;;25.20;50.27;101632.34;5048365;28;20216;-84
2023/06/25 10:06:56;;;;;;;5.10;3.88;;;;;;;25.26;50.22;101628.38;5044187;28;20033;-84
2023/06/25 10:09:21;;;;;;;4.47;3.53;;;;;;;25.32;50.55;101630.59;5046065;28;20024;-83
2023/06/25 10:11:50;;;;;;;4.50;3.60;;;;;;;25.36;50.01;101625.88;5042611;28;20028;-83
2023/06/25 10:14:16;;;;;;;5.60;3.85;;;;;;;25.37;49.71;101619.56;5045582;28;20035;-83
2023/06/25 10:16:41;;;;;;;5.03;3.78;;;;;;;25.40;49.77;101619.34;5051815;28;20375;-84
2023/06/25 10:19:07;;;;;;;4.47;3.60;;;;;;;25.45;49.66;101615.38;5049601;28;20032;-84
2023/06/25 10:21:32;;;;;;;4.80;3.88;;;;;;;25.51;49.52;101616.72;5049344;28;20024;-84
2023/06/25 10:24:00;;;;;;;5.75;3.83;;;;;;;25.57;48.72;101618.91;5046297;28;20025;-83
2023/06/25 10:26:29;;;;;;;6.53;3.50;;;;;;;25.62;48.79;101610.56;5044580;28;20030;-83
2023/06/25 10:28:55;;;;;;;4.57;3.78;;;;;;;25.66;48.02;101601.38;5048529;28;20029;-84
2023/06/25 10:31:21;;;;;;;4.50;3.78;;;;;;;25.70;49.44;101600.16;5051412;28;20046;-83
2023/06/25 10:33:46;;;;;;;4.85;3.78;;;;;;;25.76;47.23;101596.16;5051943;28;20472;-83
2023/06/25 10:36:12;;;;;;;4.35;3.67;;;;;;;25.82;48.78;101595.66;5051358;28;20024;-82
2023/06/25 10:38:39;;;;;;;3.92;3.33;;;;;;;25.85;45.15;101589.25;5049380;28;20039;-84
2023/06/25 10:41:04;;;;;;;4.38;3.47;;;;;;;25.90;46.72;101585.25;5049458;28;20036;-83
2023/06/25 10:43:29;;;;;;;5.15;3.30;;;;;;;25.95;47.91;101587.56;5050907;28;20354;-84
2023/06/25 10:45:56;;;;;;;5.30;3.40;;;;;;;25.99;45.04;101590.81;5031583;28;20033;-82
2023/06/25 10:48:23;;;;;;;9.20;3.90;;;;;;;26.02;45.29;101587.91;5046392;28;20046;-82
2023/06/25 10:50:50;;;;;;;4.13;3.30;;;;;;;26.05;45.59;101577.84;5031783;28;20369;-82
2023/06/25 10:53:19;;;;;;;6.20;3.50;;;;;;;26.10;45.13;101571.28;5051132;28;20075;-83
2023/06/25 10:55:46;;;;;;;4.65;3.35;;;;;;;26.14;44.09;101578.94;5049961;28;20033;-82
2023/06/25 10:58:16;;;;;;;4.03;3.45;;;;;;;26.20;47.19;101577.63;5047520;28;20480;-82
2023/06/25 11:00:42;;;;;;;4.85;3.65;;;;;;;26.23;45.37;101573.84;5047823;28;20407;-81
2023/06/25 11:03:07;;;;;;;5.68;3.40;;;;;;;26.27;44.28;101575.31;5046066;28;20040;-82
2023/06/25 11:05:43;;;;;;;3.80;3.30;;;;;;;26.30;45.81;101570.56;5032044;28;20093;-82
2023/06/25 11:08:08;;;;;;;4.15;3.50;;;;;;;26.32;44.55;101567.75;5049018;28;20028;-81
2023/06/25 11:10:36;;;;;;;7.10;3.40;;;;;;;26.36;43.29;101567.41;5049086;28;20024;-81
2023/06/25 11:13:02;;;;;;;4.68;3.75;;;;;;;26.41;43.84;101559.00;5043155;28;20387;-82